sensor_id;sensor_type;location;lat;lon;timestamp;pressure;altitude;pressure_sealevel;temperature;humidity
74893;BME280;63446;56.272;43.922;2023-05-19T00:00:27;100985.97;;;16.40;57.93
74893;BME280;63446;56.272;43.922;2023-05-19T00:02:53;100998.00;;;16.37;57.95
74893;BME280;63446;56.272;43.922;2023-05-19T00:05:20;100996.72;;;16.34;58.15
74893;BME280;63446;56.272;43.922;2023-05-19T00:07:49;101001.06;;;16.30;58.09
74893;BME280;63446;56.272;43.922;2023-05-19T00:10:17;100988.59;;;16.26;58.05
74893;BME280;63446;56.272;43.922;2023-05-19T00:12:43;100991.06;;;16.22;58.16
74893;BME280;63446;56.272;43.922;2023-05-19T00:15:09;100993.19;;;16.20;58.18
74893;BME280;63446;56.272;43.922;2023-05-19T00:17:35;100993.00;;;16.17;58.13
74893;BME280;63446;56.272;43.922;2023-05-19T00:20:03;100985.28;;;16.15;58.09
74893;BME280;63446;56.272;43.922;2023-05-19T00:22:33;100991.19;;;16.12;58.14
74893;BME280;63446;56.272;43.922;2023-05-19T00:24:58;100988.00;;;16.10;58.17
74893;BME280;63446;56.272;43.922;2023-05-19T00:27:24;100996.31;;;16.08;58.00
74893;BME280;63446;56.272;43.922;2023-05-19T00:29:50;100991.28;;;16.07;58.02
74893;BME280;63446;56.272;43.922;2023-05-19T00:32:16;100993.75;;;16.03;58.02
74893;BME280;63446;56.272;43.922;2023-05-19T00:34:42;100992.13;;;16.02;58.06
74893;BME280;63446;56.272;43.922;2023-05-19T00:37:07;100996.97;;;16.00;57.99
74893;BME280;63446;56.272;43.922;2023-05-19T00:39:33;100994.31;;;16.00;58.17
74893;BME280;63446;56.272;43.922;2023-05-19T00:41:59;100996.75;;;15.97;58.14
74893;BME280;63446;56.272;43.922;2023-05-19T00:44:25;100995.19;;;15.96;58.17
74893;BME280;63446;56.272;43.922;2023-05-19T00:46:50;100990.91;;;15.95;58.20
74893;BME280;63446;56.272;43.922;2023-05-19T00:49:17;100997.06;;;15.95;58.35
74893;BME280;63446;56.272;43.922;2023-05-19T00:51:42;100995.44;;;15.94;58.35
74893;BME280;63446;56.272;43.922;2023-05-19T00:54:08;101007.41;;;15.97;58.25
74893;BME280;63446;56.272;43.922;2023-05-19T00:56:34;100993.31;;;15.96;58.36
74893;BME280;63446;56.272;43.922;2023-05-19T00:59:00;101000.72;;;15.99;58.24
74893;BME280;63446;56.272;43.922;2023-05-19T01:01:27;101001.22;;;16.01;58.23
74893;BME280;63446;56.272;43.922;2023-05-19T01:03:53;100995.31;;;16.04;58.08
74893;BME280;63446;56.272;43.922;2023-05-19T01:06:21;100995.31;;;16.04;58.29
74893;BME280;63446;56.272;43.922;2023-05-19T01:08:50;101006.91;;;16.14;58.02
74893;BME280;63446;56.272;43.922;2023-05-19T01:11:16;101006.84;;;16.19;57.83
74893;BME280;63446;56.272;43.922;2023-05-19T01:13:42;101002.50;;;16.23;57.57
74893;BME280;63446;56.272;43.922;2023-05-19T01:19:00;101006.50;;;16.39;57.66
74893;BME280;63446;56.272;43.922;2023-05-19T01:22:11;101018.28;;;16.52;57.43
74893;BME280;63446;56.272;43.922;2023-05-19T01:30:43;100996.59;;;16.91;56.38
74893;BME280;63446;56.272;43.922;2023-05-19T01:33:11;101006.47;;;17.04;56.35
74893;BME280;63446;56.272;43.922;2023-05-19T01:35:42;101005.66;;;17.18;56.05
74893;BME280;63446;56.272;43.922;2023-05-19T01:38:10;101005.09;;;17.35;55.74
74893;BME280;63446;56.272;43.922;2023-05-19T01:40:38;101001.78;;;17.51;55.14
74893;BME280;63446;56.272;43.922;2023-05-19T01:43:05;101001.13;;;17.96;54.25
74893;BME280;63446;56.272;43.922;2023-05-19T01:45:32;101001.38;;;19.15;51.89
74893;BME280;63446;56.272;43.922;2023-05-19T01:48:01;101010.94;;;20.60;49.43
74893;BME280;63446;56.272;43.922;2023-05-19T01:50:29;101001.31;;;22.20;46.88
74893;BME280;63446;56.272;43.922;2023-05-19T01:52:55;101006.25;;;23.73;44.06
74893;BME280;63446;56.272;43.922;2023-05-19T01:55:21;101001.88;;;25.16;41.48
74893;BME280;63446;56.272;43.922;2023-05-19T01:58:25;100996.47;;;26.75;39.44
74893;BME280;63446;56.272;43.922;2023-05-19T02:01:39;101005.81;;;28.62;37.12
74893;BME280;63446;56.272;43.922;2023-05-19T02:07:08;101004.38;;;31.07;33.22
74893;BME280;63446;56.272;43.922;2023-05-19T02:09:54;101000.34;;;32.28;31.66
74893;BME280;63446;56.272;43.922;2023-05-19T02:12:34;100995.16;;;33.27;30.19
74893;BME280;63446;56.272;43.922;2023-05-19T02:17:36;101006.97;;;34.86;27.69
74893;BME280;63446;56.272;43.922;2023-05-19T02:20:03;100988.56;;;35.66;26.95
74893;BME280;63446;56.272;43.922;2023-05-19T02:22:31;100994.56;;;36.30;26.41
74893;BME280;63446;56.272;43.922;2023-05-19T02:24:57;100992.53;;;35.82;26.80
74893;BME280;63446;56.272;43.922;2023-05-19T02:27:23;100992.25;;;34.77;27.73
74893;BME280;63446;56.272;43.922;2023-05-19T02:29:49;100987.16;;;33.74;28.33
74893;BME280;63446;56.272;43.922;2023-05-19T02:32:15;100997.03;;;33.98;28.21
74893;BME280;63446;56.272;43.922;2023-05-19T02:34:41;100990.84;;;34.68;27.63
74893;BME280;63446;56.272;43.922;2023-05-19T02:37:14;100991.06;;;34.78;27.17
74893;BME280;63446;56.272;43.922;2023-05-19T02:39:41;100985.94;;;34.80;27.11
74893;BME280;63446;56.272;43.922;2023-05-19T02:42:07;100990.72;;;34.76;26.86
74893;BME280;63446;56.272;43.922;2023-05-19T02:44:33;101000.09;;;34.28;27.58
74893;BME280;63446;56.272;43.922;2023-05-19T02:46:59;101001.16;;;33.52;28.87
74893;BME280;63446;56.272;43.922;2023-05-19T02:49:25;100996.53;;;34.31;28.39
74893;BME280;63446;56.272;43.922;2023-05-19T02:51:50;100993.44;;;35.59;27.30
74893;BME280;63446;56.272;43.922;2023-05-19T02:54:17;100996.63;;;37.04;26.23
74893;BME280;63446;56.272;43.922;2023-05-19T02:56:43;101000.41;;;38.76;24.37
74893;BME280;63446;56.272;43.922;2023-05-19T02:59:09;100994.44;;;40.43;22.92
74893;BME280;63446;56.272;43.922;2023-05-19T03:01:35;100994.16;;;41.99;21.62
74893;BME280;63446;56.272;43.922;2023-05-19T03:04:02;101000.66;;;43.42;19.86
74893;BME280;63446;56.272;43.922;2023-05-19T03:06:28;100996.09;;;44.71;19.15
74893;BME280;63446;56.272;43.922;2023-05-19T03:08:54;100985.84;;;45.83;18.23
74893;BME280;63446;56.272;43.922;2023-05-19T03:11:20;100989.97;;;46.81;17.12
74893;BME280;63446;56.272;43.922;2023-05-19T03:13:47;100988.16;;;47.68;16.83
74893;BME280;63446;56.272;43.922;2023-05-19T03:16:13;100987.34;;;48.42;16.70
74893;BME280;63446;56.272;43.922;2023-05-19T03:18:40;100978.19;;;49.08;15.96
74893;BME280;63446;56.272;43.922;2023-05-19T03:21:06;100979.94;;;49.66;15.55
74893;BME280;63446;56.272;43.922;2023-05-19T03:23:32;100978.97;;;50.25;14.94
74893;BME280;63446;56.272;43.922;2023-05-19T03:25:58;100978.66;;;50.80;14.52
74893;BME280;63446;56.272;43.922;2023-05-19T03:28:24;100972.41;;;51.33;14.51
74893;BME280;63446;56.272;43.922;2023-05-19T03:30:52;100972.16;;;51.84;13.75
74893;BME280;63446;56.272;43.922;2023-05-19T03:33:21;100974.84;;;52.37;13.86
74893;BME280;63446;56.272;43.922;2023-05-19T03:35:48;100966.13;;;52.90;12.76
74893;BME280;63446;56.272;43.922;2023-05-19T03:38:15;100963.63;;;53.36;12.41
74893;BME280;63446;56.272;43.922;2023-05-19T03:40:48;100959.84;;;53.70;12.27
74893;BME280;63446;56.272;43.922;2023-05-19T03:43:14;100963.38;;;54.06;11.69
74893;BME280;63446;56.272;43.922;2023-05-19T03:45:45;100968.53;;;54.46;11.60
74893;BME280;63446;56.272;43.922;2023-05-19T03:48:30;100960.09;;;54.92;11.50
74893;BME280;63446;56.272;43.922;2023-05-19T03:51:31;100957.34;;;55.40;11.34
74893;BME280;63446;56.272;43.922;2023-05-19T03:54:06;100956.25;;;55.76;11.17
74893;BME280;63446;56.272;43.922;2023-05-19T03:56:32;100955.31;;;56.14;10.77
74893;BME280;63446;56.272;43.922;2023-05-19T03:58:58;100958.03;;;56.54;10.84
74893;BME280;63446;56.272;43.922;2023-05-19T04:01:24;100966.41;;;56.94;10.66
74893;BME280;63446;56.272;43.922;2023-05-19T04:03:50;100951.94;;;57.35;10.49
74893;BME280;63446;56.272;43.922;2023-05-19T04:06:16;100960.44;;;57.69;10.26
74893;BME280;63446;56.272;43.922;2023-05-19T04:08:43;100958.44;;;57.89;10.31
74893;BME280;63446;56.272;43.922;2023-05-19T04:11:09;100948.22;;;58.04;10.13
74893;BME280;63446;56.272;43.922;2023-05-19T04:13:35;100949.59;;;58.12;10.05
74893;BME280;63446;56.272;43.922;2023-05-19T04:16:00;100953.97;;;58.23;10.12
74893;BME280;63446;56.272;43.922;2023-05-19T04:18:26;100947.31;;;58.38;10.27
74893;BME280;63446;56.272;43.922;2023-05-19T04:20:52;100946.31;;;58.53;10.00
74893;BME280;63446;56.272;43.922;2023-05-19T04:23:18;100944.09;;;58.61;10.04
74893;BME280;63446;56.272;43.922;2023-05-19T04:25:45;100942.91;;;58.64;9.95
74893;BME280;63446;56.272;43.922;2023-05-19T04:28:14;100937.22;;;58.74;9.97
74893;BME280;63446;56.272;43.922;2023-05-19T04:30:40;100931.41;;;58.91;9.80
74893;BME280;63446;56.272;43.922;2023-05-19T04:33:07;100932.16;;;59.11;9.72
74893;BME280;63446;56.272;43.922;2023-05-19T04:35:36;100929.91;;;59.29;9.75
74893;BME280;63446;56.272;43.922;2023-05-19T04:38:03;100926.88;;;59.46;9.22
74893;BME280;63446;56.272;43.922;2023-05-19T04:40:31;100921.88;;;59.66;9.21
74893;BME280;63446;56.272;43.922;2023-05-19T04:42:57;100920.31;;;59.84;9.28
74893;BME280;63446;56.272;43.922;2023-05-19T04:45:24;100920.41;;;60.06;9.06
74893;BME280;63446;56.272;43.922;2023-05-19T04:47:55;100910.66;;;60.30;8.72
74893;BME280;63446;56.272;43.922;2023-05-19T04:50:23;100911.28;;;60.50;8.75
74893;BME280;63446;56.272;43.922;2023-05-19T04:52:49;100905.66;;;60.62;9.03
74893;BME280;63446;56.272;43.922;2023-05-19T04:55:15;100897.13;;;60.74;8.81
74893;BME280;63446;56.272;43.922;2023-05-19T04:57:42;100903.03;;;60.88;8.76
74893;BME280;63446;56.272;43.922;2023-05-19T05:00:08;100901.13;;;61.02;8.49
74893;BME280;63446;56.272;43.922;2023-05-19T05:02:47;100896.31;;;61.16;8.42
74893;BME280;63446;56.272;43.922;2023-05-19T05:05:17;100889.41;;;61.31;8.44
74893;BME280;63446;56.272;43.922;2023-05-19T05:07:43;100900.25;;;61.44;8.56
74893;BME280;63446;56.272;43.922;2023-05-19T05:10:10;100893.44;;;61.61;8.21
74893;BME280;63446;56.272;43.922;2023-05-19T05:12:36;100888.88;;;61.80;8.20
74893;BME280;63446;56.272;43.922;2023-05-19T05:15:03;100892.19;;;61.99;8.21
74893;BME280;63446;56.272;43.922;2023-05-19T05:17:32;100891.56;;;62.25;8.02
74893;BME280;63446;56.272;43.922;2023-05-19T05:20:01;100878.69;;;62.49;7.88
74893;BME280;63446;56.272;43.922;2023-05-19T05:22:30;100885.59;;;62.69;7.86
74893;BME280;63446;56.272;43.922;2023-05-19T05:24:57;100880.28;;;62.89;7.72
74893;BME280;63446;56.272;43.922;2023-05-19T05:27:23;100870.03;;;62.98;7.65
74893;BME280;63446;56.272;43.922;2023-05-19T05:29:49;100875.25;;;62.27;8.12
74893;BME280;63446;56.272;43.922;2023-05-19T05:32:15;100869.97;;;61.86;8.29
74893;BME280;63446;56.272;43.922;2023-05-19T05:34:42;100870.06;;;61.65;8.08
74893;BME280;63446;56.272;43.922;2023-05-19T05:37:10;100865.84;;;61.66;8.10
74893;BME280;63446;56.272;43.922;2023-05-19T05:39:36;100862.13;;;61.75;8.23
74893;BME280;63446;56.272;43.922;2023-05-19T05:42:02;100866.84;;;61.94;8.23
74893;BME280;63446;56.272;43.922;2023-05-19T05:44:29;100862.84;;;61.99;8.21
74893;BME280;63446;56.272;43.922;2023-05-19T05:46:55;100860.75;;;61.88;8.17
74893;BME280;63446;56.272;43.922;2023-05-19T05:49:21;100858.91;;;61.81;8.15
74893;BME280;63446;56.272;43.922;2023-05-19T05:51:49;100859.59;;;61.46;8.04
74893;BME280;63446;56.272;43.922;2023-05-19T05:54:19;100852.69;;;61.16;8.25
74893;BME280;63446;56.272;43.922;2023-05-19T05:56:46;100854.31;;;61.07;8.33
74893;BME280;63446;56.272;43.922;2023-05-19T05:59:12;100851.97;;;61.15;8.42
74893;BME280;63446;56.272;43.922;2023-05-19T06:01:38;100847.72;;;61.16;8.25
74893;BME280;63446;56.272;43.922;2023-05-19T06:04:09;100840.06;;;60.52;8.62
74893;BME280;63446;56.272;43.922;2023-05-19T06:06:35;100847.78;;;58.86;9.18
74893;BME280;63446;56.272;43.922;2023-05-19T06:09:03;100842.06;;;56.75;9.72
74893;BME280;63446;56.272;43.922;2023-05-19T06:11:29;100834.25;;;54.47;10.78
74893;BME280;63446;56.272;43.922;2023-05-19T06:13:57;100832.31;;;52.36;11.54
74893;BME280;63446;56.272;43.922;2023-05-19T06:16:41;100830.13;;;50.33;12.86
74893;BME280;63446;56.272;43.922;2023-05-19T06:19:07;100839.06;;;48.69;13.57
74893;BME280;63446;56.272;43.922;2023-05-19T06:21:35;100837.94;;;47.07;14.71
74893;BME280;63446;56.272;43.922;2023-05-19T06:24:01;100843.56;;;45.57;15.56
74893;BME280;63446;56.272;43.922;2023-05-19T06:26:27;100849.09;;;44.19;16.69
74893;BME280;63446;56.272;43.922;2023-05-19T06:28:53;100851.59;;;43.00;17.65
74893;BME280;63446;56.272;43.922;2023-05-19T06:31:19;100861.59;;;41.94;18.46
74893;BME280;63446;56.272;43.922;2023-05-19T06:33:51;100858.66;;;41.07;19.32
74893;BME280;63446;56.272;43.922;2023-05-19T06:36:19;100860.31;;;40.35;20.19
74893;BME280;63446;56.272;43.922;2023-05-19T06:38:46;100859.34;;;39.73;20.73
74893;BME280;63446;56.272;43.922;2023-05-19T06:41:12;100862.53;;;39.22;20.88
74893;BME280;63446;56.272;43.922;2023-05-19T06:43:41;100851.53;;;38.78;21.48
74893;BME280;63446;56.272;43.922;2023-05-19T06:46:12;100864.03;;;38.39;22.22
74893;BME280;63446;56.272;43.922;2023-05-19T06:48:39;100871.41;;;38.07;22.38
74893;BME280;63446;56.272;43.922;2023-05-19T06:51:06;100876.41;;;37.74;22.82
74893;BME280;63446;56.272;43.922;2023-05-19T06:53:32;100877.34;;;37.46;23.40
74893;BME280;63446;56.272;43.922;2023-05-19T06:56:01;100878.06;;;37.21;23.74
74893;BME280;63446;56.272;43.922;2023-05-19T06:58:31;100873.31;;;36.96;23.51
74893;BME280;63446;56.272;43.922;2023-05-19T07:00:59;100878.06;;;36.66;24.42
74893;BME280;63446;56.272;43.922;2023-05-19T07:03:29;100880.25;;;36.42;24.28
74893;BME280;63446;56.272;43.922;2023-05-19T07:05:55;100885.91;;;36.22;24.46
74893;BME280;63446;56.272;43.922;2023-05-19T07:08:21;100885.59;;;36.04;24.82
74893;BME280;63446;56.272;43.922;2023-05-19T07:10:48;100881.38;;;35.83;24.84
74893;BME280;63446;56.272;43.922;2023-05-19T07:13:15;100877.56;;;35.60;25.60
74893;BME280;63446;56.272;43.922;2023-05-19T07:15:41;100883.44;;;35.42;26.21
74893;BME280;63446;56.272;43.922;2023-05-19T07:18:07;100891.31;;;35.24;26.07
74893;BME280;63446;56.272;43.922;2023-05-19T07:20:34;100897.66;;;35.01;27.14
74893;BME280;63446;56.272;43.922;2023-05-19T07:23:00;100888.84;;;34.70;28.07
74893;BME280;63446;56.272;43.922;2023-05-19T07:25:27;100896.94;;;34.34;28.94
74893;BME280;63446;56.272;43.922;2023-05-19T07:27:55;100907.31;;;33.99;29.83
74893;BME280;63446;56.272;43.922;2023-05-19T07:30:21;100911.38;;;33.64;30.28
74893;BME280;63446;56.272;43.922;2023-05-19T07:32:47;100911.31;;;33.37;31.05
74893;BME280;63446;56.272;43.922;2023-05-19T07:35:14;100915.81;;;33.20;31.36
74893;BME280;63446;56.272;43.922;2023-05-19T07:37:39;100919.41;;;33.13;31.90
74893;BME280;63446;56.272;43.922;2023-05-19T07:40:07;100910.44;;;33.13;31.40
74893;BME280;63446;56.272;43.922;2023-05-19T07:42:33;100914.78;;;33.10;31.62
74893;BME280;63446;56.272;43.922;2023-05-19T07:44:59;100926.50;;;33.11;31.15
74893;BME280;63446;56.272;43.922;2023-05-19T07:47:25;100926.59;;;33.03;31.13
74893;BME280;63446;56.272;43.922;2023-05-19T07:49:52;100921.19;;;32.93;31.36
74893;BME280;63446;56.272;43.922;2023-05-19T07:52:17;100919.44;;;32.75;31.43
74893;BME280;63446;56.272;43.922;2023-05-19T07:54:45;100921.63;;;32.53;31.80
74893;BME280;63446;56.272;43.922;2023-05-19T07:57:11;100925.69;;;32.31;32.41
74893;BME280;63446;56.272;43.922;2023-05-19T07:59:37;100926.97;;;32.19;32.47
74893;BME280;63446;56.272;43.922;2023-05-19T08:02:02;100920.81;;;32.04;32.74
74893;BME280;63446;56.272;43.922;2023-05-19T08:04:28;100926.34;;;31.97;32.99
74893;BME280;63446;56.272;43.922;2023-05-19T08:06:54;100936.91;;;31.95;32.30
74893;BME280;63446;56.272;43.922;2023-05-19T08:09:21;100931.50;;;31.88;31.85
74893;BME280;63446;56.272;43.922;2023-05-19T08:11:46;100927.59;;;31.78;32.51
74893;BME280;63446;56.272;43.922;2023-05-19T08:14:12;100933.16;;;31.71;32.11
74893;BME280;63446;56.272;43.922;2023-05-19T08:16:38;100931.63;;;31.59;31.98
74893;BME280;63446;56.272;43.922;2023-05-19T08:19:06;100937.94;;;31.46;32.59
74893;BME280;63446;56.272;43.922;2023-05-19T08:21:33;100933.31;;;31.35;32.62
74893;BME280;63446;56.272;43.922;2023-05-19T08:24:00;100934.13;;;31.25;32.73
74893;BME280;63446;56.272;43.922;2023-05-19T08:26:27;100935.69;;;31.16;32.91
74893;BME280;63446;56.272;43.922;2023-05-19T08:28:52;100929.91;;;31.06;33.13
74893;BME280;63446;56.272;43.922;2023-05-19T08:31:18;100936.13;;;31.03;33.45
74893;BME280;63446;56.272;43.922;2023-05-19T08:33:45;100933.81;;;30.98;33.20
74893;BME280;63446;56.272;43.922;2023-05-19T08:36:10;100945.53;;;30.92;33.19
74893;BME280;63446;56.272;43.922;2023-05-19T08:38:38;100950.22;;;30.77;32.20
74893;BME280;63446;56.272;43.922;2023-05-19T08:41:03;100946.72;;;30.58;32.45
74893;BME280;63446;56.272;43.922;2023-05-19T08:43:30;100950.63;;;30.43;33.08
74893;BME280;63446;56.272;43.922;2023-05-19T08:45:58;100948.28;;;30.31;33.75
74893;BME280;63446;56.272;43.922;2023-05-19T08:48:28;100947.09;;;30.25;34.19
74893;BME280;63446;56.272;43.922;2023-05-19T08:51:19;100947.91;;;30.22;34.45
74893;BME280;63446;56.272;43.922;2023-05-19T08:53:49;100938.91;;;30.25;34.84
74893;BME280;63446;56.272;43.922;2023-05-19T08:56:25;100947.09;;;30.28;34.57
74893;BME280;63446;56.272;43.922;2023-05-19T08:58:55;100944.38;;;30.32;34.48
74893;BME280;63446;56.272;43.922;2023-05-19T09:01:25;100952.97;;;30.34;34.54
74893;BME280;63446;56.272;43.922;2023-05-19T09:03:53;100952.19;;;30.33;34.67
74893;BME280;63446;56.272;43.922;2023-05-19T09:06:19;100959.59;;;30.33;34.49
74893;BME280;63446;56.272;43.922;2023-05-19T09:08:46;100957.25;;;30.35;34.55
74893;BME280;63446;56.272;43.922;2023-05-19T09:11:12;100957.25;;;30.35;34.82
74893;BME280;63446;56.272;43.922;2023-05-19T09:13:39;100958.78;;;30.36;35.30
74893;BME280;63446;56.272;43.922;2023-05-19T09:16:05;100963.47;;;30.39;35.90
74893;BME280;63446;56.272;43.922;2023-05-19T09:18:31;100958.03;;;30.43;35.97
74893;BME280;63446;56.272;43.922;2023-05-19T09:21:00;100963.88;;;30.48;35.88
74893;BME280;63446;56.272;43.922;2023-05-19T09:23:29;100954.53;;;30.49;35.89
74893;BME280;63446;56.272;43.922;2023-05-19T09:25:56;100956.06;;;30.47;35.86
74893;BME280;63446;56.272;43.922;2023-05-19T09:28:23;100960.75;;;30.46;35.94
74893;BME280;63446;56.272;43.922;2023-05-19T09:31:07;100958.03;;;30.46;36.20
74893;BME280;63446;56.272;43.922;2023-05-19T09:33:35;100954.53;;;30.46;36.39
74893;BME280;63446;56.272;43.922;2023-05-19T09:36:02;100959.56;;;30.47;36.44
74893;BME280;63446;56.272;43.922;2023-05-19T09:38:31;100963.47;;;30.50;36.46
74893;BME280;63446;56.272;43.922;2023-05-19T09:40:58;100965.03;;;30.54;36.35
74893;BME280;63446;56.272;43.922;2023-05-19T09:43:29;100956.84;;;30.54;36.28
74893;BME280;63446;56.272;43.922;2023-05-19T09:46:05;100955.28;;;30.60;36.34
74893;BME280;63446;56.272;43.922;2023-05-19T09:48:33;100960.75;;;30.60;36.40
74893;BME280;63446;56.272;43.922;2023-05-19T09:51:00;100967.75;;;30.61;36.27
74893;BME280;63446;56.272;43.922;2023-05-19T09:53:28;100965.44;;;30.60;36.15
74893;BME280;63446;56.272;43.922;2023-05-19T09:55:55;100959.56;;;30.61;35.97
74893;BME280;63446;56.272;43.922;2023-05-19T09:58:25;100957.63;;;30.65;35.98
74893;BME280;63446;56.272;43.922;2023-05-19T10:00:52;100964.25;;;30.72;35.44
74893;BME280;63446;56.272;43.922;2023-05-19T10:03:20;100962.31;;;30.76;35.29
74893;BME280;63446;56.272;43.922;2023-05-19T10:05:47;100957.63;;;30.80;35.04
74893;BME280;63446;56.272;43.922;2023-05-19T10:08:15;100960.38;;;30.80;34.70
74893;BME280;63446;56.272;43.922;2023-05-19T10:10:44;100964.25;;;30.82;34.45
74893;BME280;63446;56.272;43.922;2023-05-19T10:13:11;100968.53;;;30.91;34.24
74893;BME280;63446;56.272;43.922;2023-05-19T10:15:37;100968.91;;;30.93;33.98
74893;BME280;63446;56.272;43.922;2023-05-19T10:18:05;100962.28;;;30.90;34.02
74893;BME280;63446;56.272;43.922;2023-05-19T10:20:33;100980.22;;;30.91;34.13
74893;BME280;63446;56.272;43.922;2023-05-19T10:23:01;100966.94;;;30.97;34.00
74893;BME280;63446;56.272;43.922;2023-05-19T10:25:31;100959.53;;;31.01;33.86
74893;BME280;63446;56.272;43.922;2023-05-19T10:28:04;100965.38;;;31.10;33.86
74893;BME280;63446;56.272;43.922;2023-05-19T10:30:35;100958.31;;;31.16;33.80
74893;BME280;63446;56.272;43.922;2023-05-19T10:33:06;100963.34;;;31.25;33.45
74893;BME280;63446;56.272;43.922;2023-05-19T10:36:37;100962.97;;;31.23;33.17
74893;BME280;63446;56.272;43.922;2023-05-19T10:44:16;100959.09;;;31.09;33.68
74893;BME280;63446;56.272;43.922;2023-05-19T10:46:44;100960.28;;;31.08;33.72
74893;BME280;63446;56.272;43.922;2023-05-19T10:49:19;100957.56;;;31.05;33.74
74893;BME280;63446;56.272;43.922;2023-05-19T10:51:44;100949.78;;;31.03;33.56
74893;BME280;63446;56.272;43.922;2023-05-19T10:54:11;100955.66;;;30.95;33.64
74893;BME280;63446;56.272;43.922;2023-05-19T10:56:42;100953.72;;;30.88;33.76
74893;BME280;63446;56.272;43.922;2023-05-19T10:59:31;100956.06;;;30.79;33.65
74893;BME280;63446;56.272;43.922;2023-05-19T11:02:05;100951.38;;;30.65;33.28
74893;BME280;63446;56.272;43.922;2023-05-19T11:07:08;100948.28;;;30.31;33.66
74893;BME280;63446;56.272;43.922;2023-05-19T11:09:39;100959.56;;;30.19;34.01
74893;BME280;63446;56.272;43.922;2023-05-19T11:12:07;100965.75;;;30.08;34.13
74893;BME280;63446;56.272;43.922;2023-05-19T11:14:35;100960.28;;;30.01;34.32
74893;BME280;63446;56.272;43.922;2023-05-19T11:17:00;100964.94;;;29.97;34.59
74893;BME280;63446;56.272;43.922;2023-05-19T11:19:51;100965.72;;;29.94;34.09
74893;BME280;63446;56.272;43.922;2023-05-19T11:22:17;100947.44;;;29.95;34.30
74893;BME280;63446;56.272;43.922;2023-05-19T11:24:44;100949.00;;;29.96;34.09
74893;BME280;63446;56.272;43.922;2023-05-19T11:29:42;100940.44;;;30.04;34.30
74893;BME280;63446;56.272;43.922;2023-05-19T11:32:09;100948.63;;;30.04;34.64
74893;BME280;63446;56.272;43.922;2023-05-19T11:34:36;100950.16;;;30.02;34.86
74893;BME280;63446;56.272;43.922;2023-05-19T11:37:03;100939.25;;;30.02;35.06
74893;BME280;63446;56.272;43.922;2023-05-19T11:39:30;100947.06;;;30.03;35.25
74893;BME280;63446;56.272;43.922;2023-05-19T11:41:56;100956.78;;;30.04;35.28
74893;BME280;63446;56.272;43.922;2023-05-19T11:44:22;100956.78;;;30.04;35.37
74893;BME280;63446;56.272;43.922;2023-05-19T11:46:48;100963.03;;;30.08;35.41
74893;BME280;63446;56.272;43.922;2023-05-19T11:49:14;100958.34;;;30.12;35.28
74893;BME280;63446;56.272;43.922;2023-05-19T11:51:47;100969.28;;;30.16;35.30
74893;BME280;63446;56.272;43.922;2023-05-19T11:54:12;100970.84;;;30.21;35.35
74893;BME280;63446;56.272;43.922;2023-05-19T11:56:39;100968.53;;;30.26;35.63
74893;BME280;63446;56.272;43.922;2023-05-19T11:59:05;100980.97;;;30.24;35.94
74893;BME280;63446;56.272;43.922;2023-05-19T12:01:32;100979.41;;;30.15;36.21
74893;BME280;63446;56.272;43.922;2023-05-19T12:03:59;100983.69;;;30.16;36.15
74893;BME280;63446;56.272;43.922;2023-05-19T12:06:25;100991.06;;;30.12;36.37
74893;BME280;63446;56.272;43.922;2023-05-19T12:08:53;100994.16;;;30.04;36.39
74893;BME280;63446;56.272;43.922;2023-05-19T12:11:19;100998.41;;;29.94;36.78
74893;BME280;63446;56.272;43.922;2023-05-19T12:13:46;100998.78;;;29.82;37.03
74893;BME280;63446;56.272;43.922;2023-05-19T12:16:12;101009.63;;;29.75;37.36
74893;BME280;63446;56.272;43.922;2023-05-19T12:18:38;101015.47;;;29.70;37.49
74893;BME280;63446;56.272;43.922;2023-05-19T12:21:07;101025.56;;;29.65;37.66
74893;BME280;63446;56.272;43.922;2023-05-19T12:23:33;101031.34;;;29.57;37.92
74893;BME280;63446;56.272;43.922;2023-05-19T12:25:59;101039.06;;;29.48;38.18
74893;BME280;63446;56.272;43.922;2023-05-19T12:28:28;101046.78;;;29.35;38.23
74893;BME280;63446;56.272;43.922;2023-05-19T12:30:55;101061.47;;;29.19;38.31
74893;BME280;63446;56.272;43.922;2023-05-19T12:33:23;101060.84;;;28.92;38.62
74893;BME280;63446;56.272;43.922;2023-05-19T12:35:50;101064.53;;;28.70;38.99
74893;BME280;63446;56.272;43.922;2023-05-19T12:38:18;101061.66;;;28.49;39.20
74893;BME280;63446;56.272;43.922;2023-05-19T12:40:44;101065.25;;;28.26;39.39
74893;BME280;63446;56.272;43.922;2023-05-19T12:43:20;101066.22;;;28.07;39.57
74893;BME280;63446;56.272;43.922;2023-05-19T12:45:47;101082.72;;;27.91;39.63
74893;BME280;63446;56.272;43.922;2023-05-19T12:48:14;101069.97;;;27.69;39.71
74893;BME280;63446;56.272;43.922;2023-05-19T12:50:40;101091.78;;;27.46;39.96
74893;BME280;63446;56.272;43.922;2023-05-19T12:53:13;101095.78;;;27.29;40.07
74893;BME280;63446;56.272;43.922;2023-05-19T12:55:44;101085.44;;;27.12;40.18
74893;BME280;63446;56.272;43.922;2023-05-19T12:58:10;101082.81;;;26.96;40.09
74893;BME280;63446;56.272;43.922;2023-05-19T13:00:44;101086.44;;;26.81;40.52
74893;BME280;63446;56.272;43.922;2023-05-19T13:03:16;101089.69;;;26.67;40.44
74893;BME280;63446;56.272;43.922;2023-05-19T13:05:46;101080.50;;;26.52;40.59
74893;BME280;63446;56.272;43.922;2023-05-19T13:08:14;101089.91;;;26.39;40.82
74893;BME280;63446;56.272;43.922;2023-05-19T13:10:43;101101.63;;;26.23;41.02